Time;durP1;ratioP1;P1;durP2;ratioP2;P2;SDS_P1;SDS_P2;PMS_P1;PMS_P2;Temp;Humidity;BMP_temperature;BMP_pressure;BME280_temperature;BME280_humidity;BME280_pressure;Samples;Min_cycle;Max_cycle;Signal;HPM_P1;HPM_P2
2023/11/30 00:00:41;;;;;;;19.90;7.90;;;;;;;5.17;40.06;99208.45;107894;1254;60457;-66
2023/11/30 00:03:08;;;;;;;24.10;9.60;;;;;;;5.12;40.13;99214.86;107867;1255;74194;-66
2023/11/30 00:05:36;;;;;;;18.30;8.40;;;;;;;5.02;40.32;99223.33;107956;1256;68925;-66
2023/11/30 00:08:04;;;;;;;18.00;9.00;;;;;;;5.03;40.29;99226.62;107901;1256;72664;-66
2023/11/30 00:10:31;;;;;;;22.20;9.10;;;;;;;5.03;40.61;99233.23;107884;1256;61724;-66
2023/11/30 00:12:59;;;;;;;21.20;10.40;;;;;;;4.77;40.59;99238.11;107974;1256;59707;-66
2023/11/30 00:15:26;;;;;;;26.90;11.60;;;;;;;4.76;40.62;99244.41;107997;1256;74411;-66
2023/11/30 00:17:54;;;;;;;23.20;8.40;;;;;;;4.79;40.54;99241.34;108012;1254;70396;-66
2023/11/30 00:20:21;;;;;;;21.90;10.00;;;;;;;4.48;41.01;99248.64;107913;1256;72696;-66
2023/11/30 00:22:49;;;;;;;23.00;10.10;;;;;;;4.47;41.14;99256.48;107924;1255;60413;-66
2023/11/30 00:25:16;;;;;;;21.80;9.30;;;;;;;4.34;41.11;99262.90;107877;1260;60343;-66
2023/11/30 00:27:44;;;;;;;23.10;9.80;;;;;;;4.37;41.21;99259.35;107958;1256;73856;-66
2023/11/30 00:30:11;;;;;;;24.80;11.10;;;;;;;4.56;40.96;99261.96;107858;1254;68883;-66
2023/11/30 00:32:39;;;;;;;17.10;7.30;;;;;;;4.55;40.58;99263.75;107838;1255;72521;-66
2023/11/30 00:35:07;;;;;;;22.10;10.40;;;;;;;4.32;41.05;99271.82;107846;1258;60866;-66
2023/11/30 00:37:35;;;;;;;20.70;9.70;;;;;;;4.35;40.67;99273.30;107896;1254;60333;-66
2023/11/30 00:40:03;;;;;;;24.60;10.10;;;;;;;4.07;41.04;99275.05;107876;1254;73886;-67
2023/11/30 00:42:31;;;;;;;17.20;8.40;;;;;;;3.99;41.28;99282.00;107859;1256;70462;-66
2023/11/30 00:45:00;;;;;;;22.30;9.70;;;;;;;3.97;41.11;99282.04;107690;1257;71782;-66
2023/11/30 00:47:27;;;;;;;24.10;11.10;;;;;;;4.13;40.96;99281.67;107920;1256;60372;-66
2023/11/30 00:49:55;;;;;;;28.10;11.80;;;;;;;4.35;40.47;99282.69;107897;1254;60343;-66
2023/11/30 00:52:22;;;;;;;22.70;10.30;;;;;;;4.39;40.41;99281.54;107969;1256;73944;-66
2023/11/30 00:54:50;;;;;;;28.60;12.10;;;;;;;4.37;40.15;99292.87;107985;1255;69032;-66
2023/11/30 00:57:17;;;;;;;22.20;10.10;;;;;;;4.18;40.57;99293.17;107907;1259;71802;-66
2023/11/30 00:59:45;;;;;;;26.60;11.40;;;;;;;4.05;40.59;99294.34;107923;1254;61732;-66
2023/11/30 01:02:12;;;;;;;21.40;9.40;;;;;;;4.10;40.69;99296.52;107850;1255;60401;-66
2023/11/30 01:04:42;;;;;;;28.50;12.20;;;;;;;4.03;40.58;99295.80;107898;1260;73818;-66
2023/11/30 01:07:09;;;;;;;28.50;12.50;;;;;;;4.11;40.64;99298.05;107863;1259;70601;-65
2023/11/30 01:09:38;;;;;;;30.50;12.90;;;;;;;4.10;40.43;99303.11;107671;1259;71074;-67
2023/11/30 01:12:06;;;;;;;26.30;11.40;;;;;;;3.86;41.02;99302.45;107975;1254;60557;-66
2023/11/30 01:14:34;;;;;;;29.40;10.60;;;;;;;3.79;41.05;99308.52;107879;1256;60394;-66
2023/11/30 01:17:01;;;;;;;28.20;11.00;;;;;;;3.65;41.00;99315.75;107973;1256;73759;-66
2023/11/30 01:19:29;;;;;;;24.80;11.20;;;;;;;3.76;41.07;99316.39;107938;1254;70427;-66
2023/11/30 01:21:56;;;;;;;24.10;9.90;;;;;;;3.97;40.61;99317.13;108002;1254;72437;-66
2023/11/30 01:24:24;;;;;;;23.10;10.50;;;;;;;3.88;40.72;99323.05;107944;1255;60804;-66
2023/11/30 01:26:52;;;;;;;32.50;14.00;;;;;;;3.80;40.94;99326.36;107937;1254;60298;-66
2023/11/30 01:29:19;;;;;;;25.90;12.10;;;;;;;3.76;40.83;99329.74;107893;1254;74193;-67
2023/11/30 01:31:47;;;;;;;30.70;13.80;;;;;;;3.57;40.94;99333.64;107966;1256;68874;-67
2023/11/30 01:34:14;;;;;;;24.00;9.30;;;;;;;3.85;40.78;99338.58;107886;1256;72484;-66
2023/11/30 01:36:42;;;;;;;24.00;10.10;;;;;;;3.68;40.62;99340.70;107870;1260;60611;-66
2023/11/30 01:39:09;;;;;;;24.80;10.70;;;;;;;3.66;40.79;99344.73;107956;1254;60073;-66
2023/11/30 01:41:36;;;;;;;27.60;12.10;;;;;;;3.66;40.75;99344.38;107899;1254;73806;-66
2023/11/30 01:44:05;;;;;;;30.60;12.00;;;;;;;3.70;40.77;99346.20;107914;1256;69376;-66
2023/11/30 01:46:33;;;;;;;31.90;14.10;;;;;;;3.78;40.87;99354.19;107909;1256;72491;-66
2023/11/30 01:49:00;;;;;;;24.60;11.00;;;;;;;3.82;40.46;99358.64;107934;1254;61724;-67
2023/11/30 01:51:28;;;;;;;21.20;9.10;;;;;;;3.86;40.58;99364.10;107920;1255;60881;-66
2023/11/30 01:53:56;;;;;;;33.90;13.30;;;;;;;3.89;40.55;99368.34;107872;1255;72671;-66
2023/11/30 01:56:24;;;;;;;29.60;14.30;;;;;;;3.92;40.29;99367.60;107637;1254;72753;-66
2023/11/30 01:58:51;;;;;;;37.80;15.20;;;;;;;4.03;40.26;99372.23;107644;1256;72679;-66
2023/11/30 02:01:19;;;;;;;32.10;13.60;;;;;;;3.90;40.21;99374.23;107926;1254;60669;-67
2023/11/30 02:03:47;;;;;;;31.40;13.00;;;;;;;3.96;40.43;99378.64;107689;1256;60309;-67
2023/11/30 02:06:16;;;;;;;20.70;8.90;;;;;;;4.00;40.18;99381.66;107963;1254;71887;-67
2023/11/30 02:08:43;;;;;;;32.60;12.00;;;;;;;3.88;40.21;99383.52;107893;1254;70637;-66
2023/11/30 02:11:12;;;;;;;26.40;12.10;;;;;;;4.05;40.14;99381.74;107947;1254;71351;-67
2023/11/30 02:13:39;;;;;;;30.10;12.30;;;;;;;4.06;40.10;99384.14;107947;1259;60398;-66
2023/11/30 02:16:08;;;;;;;33.50;14.20;;;;;;;3.84;40.18;99388.80;107946;1255;60701;-63
2023/11/30 02:18:35;;;;;;;27.80;12.10;;;;;;;4.04;40.25;99388.02;108046;1254;73040;-63
2023/11/30 02:21:03;;;;;;;31.10;12.80;;;;;;;3.89;40.24;99394.94;107999;1259;68260;-65
2023/11/30 02:23:31;;;;;;;32.00;13.90;;;;;;;4.12;40.05;99397.57;107707;1258;71510;-62
2023/11/30 02:25:58;;;;;;;34.40;14.80;;;;;;;4.02;40.04;99403.70;107906;1259;61729;-66
2023/11/30 02:28:25;;;;;;;27.80;11.20;;;;;;;3.96;39.93;99402.07;107860;1254;60287;-65
2023/11/30 02:30:53;;;;;;;32.80;12.40;;;;;;;3.94;40.19;99407.50;107894;1260;73966;-65
2023/11/30 02:33:20;;;;;;;33.40;14.00;;;;;;;3.72;40.44;99401.52;108018;1254;68688;-66
2023/11/30 02:35:48;;;;;;;31.60;11.90;;;;;;;3.66;40.52;99405.84;107979;1258;71386;-66
2023/11/30 02:38:15;;;;;;;35.30;11.90;;;;;;;3.85;40.37;99407.52;107923;1256;62694;-65
2023/11/30 02:40:44;;;;;;;33.70;12.90;;;;;;;3.63;40.54;99404.50;107946;1259;60271;-66
2023/11/30 02:43:12;;;;;;;40.70;16.60;;;;;;;3.94;40.51;99406.81;107932;1259;74086;-65
2023/11/30 02:45:39;;;;;;;35.00;15.20;;;;;;;4.08;40.14;99409.46;107957;1259;69999;-66
2023/11/30 02:48:07;;;;;;;34.90;12.80;;;;;;;3.80;40.39;99411.62;107888;1256;71023;-65
2023/11/30 02:50:34;;;;;;;32.00;14.10;;;;;;;3.65;40.89;99414.20;107967;1259;60453;-66
2023/11/30 02:53:02;;;;;;;36.80;15.20;;;;;;;3.73;40.79;99416.98;107993;1256;60384;-66
2023/11/30 02:55:29;;;;;;;32.40;15.20;;;;;;;4.04;40.30;99419.27;107894;1254;73087;-66
2023/11/30 02:57:57;;;;;;;34.10;14.50;;;;;;;4.21;40.07;99419.08;107848;1254;68219;-65
2023/11/30 03:00:24;;;;;;;32.80;13.30;;;;;;;3.83;40.45;99417.47;107949;1258;71514;-66
2023/11/30 03:02:52;;;;;;;17.90;8.20;;;;;;;3.97;40.77;99419.94;107881;1258;60445;-65
2023/11/30 03:05:19;;;;;;;23.60;10.60;;;;;;;3.64;41.05;99427.39;107696;1256;207986;-66
2023/11/30 03:09:55;;;;;;;32.10;13.70;;;;;;;-0.28;50.88;99444.58;104883;1293;600828;-66
2023/11/30 03:12:22;;;;;;;29.20;11.00;;;;;;;1.95;45.48;99438.33;107877;1254;60458;-66
2023/11/30 03:14:50;;;;;;;25.60;11.00;;;;;;;2.22;44.55;99438.48;107964;1254;59129;-66
2023/11/30 03:17:18;;;;;;;38.40;15.80;;;;;;;2.21;44.56;99438.15;107964;1260;70731;-66
2023/11/30 03:19:45;;;;;;;37.90;17.20;;;;;;;2.60;43.84;99441.56;107892;1254;68694;-67
2023/11/30 03:22:12;;;;;;;33.90;14.20;;;;;;;2.52;43.94;99442.20;107755;1261;72758;-66
2023/11/30 03:24:40;;;;;;;30.50;13.90;;;;;;;2.42;44.09;99446.35;107960;1257;97852;-66
2023/11/30 03:27:11;;;;;;;40.10;17.50;;;;;;;2.21;44.63;99448.72;107974;1258;59962;-66
2023/11/30 03:29:40;;;;;;;42.80;16.20;;;;;;;2.30;44.43;99450.50;108086;1254;70972;-66
2023/11/30 03:32:08;;;;;;;41.00;17.00;;;;;;;2.22;44.53;99455.28;108091;1254;68866;-66
2023/11/30 03:34:35;;;;;;;39.40;16.90;;;;;;;2.49;44.28;99459.05;108057;1257;72670;-66
2023/11/30 03:37:03;;;;;;;42.90;15.70;;;;;;;2.54;44.11;99468.52;108090;1254;60358;-66
2023/11/30 03:39:31;;;;;;;34.70;15.40;;;;;;;2.71;44.18;99466.52;108060;1257;59469;-66
2023/11/30 03:41:58;;;;;;;19.40;9.80;;;;;;;2.71;44.07;99470.52;108161;1256;72869;-65
2023/11/30 03:44:26;;;;;;;26.70;11.20;;;;;;;2.66;43.94;99471.63;108255;1251;69573;-66
2023/11/30 03:46:53;;;;;;;37.60;16.00;;;;;;;2.75;43.84;99474.43;108162;1251;72156;-66
2023/11/30 03:49:21;;;;;;;35.30;13.70;;;;;;;2.61;43.94;99472.21;108165;1254;60896;-66
2023/11/30 03:51:49;;;;;;;37.90;14.90;;;;;;;2.77;43.72;99477.88;108090;1251;59468;-66
2023/11/30 03:54:16;;;;;;;25.40;10.80;;;;;;;2.73;43.82;99486.61;108217;1251;73025;-66
2023/11/30 03:56:44;;;;;;;39.60;17.10;;;;;;;2.71;43.68;99482.30;108237;1257;69600;-65
2023/11/30 03:59:11;;;;;;;37.60;15.30;;;;;;;2.82;43.53;99486.46;108181;1257;71436;-66
2023/11/30 04:01:39;;;;;;;42.20;15.80;;;;;;;2.89;43.42;99486.70;108212;1251;61756;-66
2023/11/30 04:04:06;;;;;;;41.10;16.60;;;;;;;2.76;43.58;99488.28;108212;1251;60492;-66
2023/11/30 04:06:34;;;;;;;36.70;14.40;;;;;;;2.97;43.37;99489.52;108245;1251;73158;-65
2023/11/30 04:09:03;;;;;;;35.90;14.80;;;;;;;2.71;43.60;99490.97;108201;1251;69341;-65
2023/11/30 04:11:31;;;;;;;44.10;18.50;;;;;;;2.74;43.68;99493.34;108291;1254;70930;-64
2023/11/30 04:14:18;;;;;;;41.80;16.80;;;;;;;2.96;43.27;99494.39;108213;1254;61901;-66
2023/11/30 04:16:46;;;;;;;45.10;17.90;;;;;;;3.12;42.88;99492.39;108237;1251;59515;-65
2023/11/30 04:19:13;;;;;;;34.20;14.20;;;;;;;3.11;42.97;99493.44;108176;1254;72879;-65
2023/11/30 04:21:41;;;;;;;33.70;15.80;;;;;;;2.95;43.09;99500.13;108208;1251;70513;-64
2023/11/30 04:24:09;;;;;;;43.30;18.00;;;;;;;2.80;43.47;99498.27;108152;1254;71970;-64
2023/11/30 04:26:37;;;;;;;45.40;18.10;;;;;;;3.15;43.21;99499.27;108204;1254;60494;-67
2023/11/30 04:29:04;;;;;;;43.30;16.20;;;;;;;3.03;43.14;99507.29;108215;1251;60347;-65
2023/11/30 04:31:32;;;;;;;42.20;17.90;;;;;;;2.98;43.33;99506.66;108088;1251;72935;-64
2023/11/30 04:33:59;;;;;;;37.50;15.00;;;;;;;3.04;43.14;99514.20;108186;1251;70413;-64
2023/11/30 04:36:27;;;;;;;36.90;17.30;;;;;;;2.91;43.38;99510.42;108226;1254;72448;-65
2023/11/30 04:38:54;;;;;;;42.40;17.90;;;;;;;3.10;43.11;99506.12;108151;1251;61806;-65
2023/11/30 04:41:24;;;;;;;39.10;17.90;;;;;;;2.98;43.29;99503.89;108150;1254;60015;-64
2023/11/30 04:43:52;;;;;;;48.80;17.00;;;;;;;2.92;43.50;99507.45;108294;1251;70649;-64
2023/11/30 04:46:19;;;;;;;49.40;18.80;;;;;;;2.98;43.39;99508.75;108176;1251;70653;-65
2023/11/30 04:48:47;;;;;;;42.50;16.10;;;;;;;2.68;43.89;99511.28;108036;1254;72651;-65
2023/11/30 04:51:14;;;;;;;36.70;15.60;;;;;;;2.91;43.70;99510.23;108096;1254;60472;-65
2023/11/30 04:53:43;;;;;;;34.20;16.00;;;;;;;2.82;43.90;99514.03;108280;1251;60044;-66
2023/11/30 04:56:10;;;;;;;46.00;18.70;;;;;;;2.74;44.06;99511.02;108325;1251;73043;-66
2023/11/30 04:58:38;;;;;;;40.40;17.10;;;;;;;3.06;43.54;99507.23;108207;1251;70681;-66
2023/11/30 05:01:06;;;;;;;41.70;17.00;;;;;;;3.04;43.41;99512.98;108175;1254;72472;-66
2023/11/30 05:03:34;;;;;;;34.80;14.90;;;;;;;2.91;43.80;99514.75;108106;1253;61885;-66
2023/11/30 05:06:02;;;;;;;39.10;16.10;;;;;;;2.86;43.98;99518.30;108081;1254;59809;-66
2023/11/30 05:08:29;;;;;;;44.90;16.40;;;;;;;2.86;43.84;99525.59;108102;1253;71957;-65
2023/11/30 05:10:58;;;;;;;47.40;17.90;;;;;;;2.88;43.83;99529.36;108115;1254;70336;-66
2023/11/30 05:13:25;;;;;;;40.50;17.30;;;;;;;2.81;43.99;99536.23;108081;1253;72681;-66
2023/11/30 05:15:53;;;;;;;45.60;18.10;;;;;;;2.90;43.88;99537.48;108036;1254;60459;-65
2023/11/30 05:18:20;;;;;;;42.70;17.00;;;;;;;2.94;43.84;99542.97;108137;1254;59417;-66
2023/11/30 05:20:48;;;;;;;42.10;17.10;;;;;;;2.68;44.19;99548.54;108126;1254;73000;-65
2023/11/30 05:23:15;;;;;;;41.10;16.00;;;;;;;2.73;44.21;99553.34;108076;1254;69237;-65
2023/11/30 05:25:43;;;;;;;34.30;14.10;;;;;;;2.61;44.32;99558.02;108123;1254;71174;-66
2023/11/30 05:28:10;;;;;;;38.50;15.60;;;;;;;2.48;44.58;99562.00;108101;1257;60438;-65
2023/11/30 05:30:37;;;;;;;40.30;17.00;;;;;;;2.73;44.33;99564.61;108099;1254;60433;-66
2023/11/30 05:33:06;;;;;;;42.00;16.80;;;;;;;2.81;44.06;99569.35;108036;1257;72486;-66
2023/11/30 05:35:34;;;;;;;40.10;17.10;;;;;;;2.84;44.02;99567.90;108130;1254;69650;-65
2023/11/30 05:38:03;;;;;;;36.80;16.20;;;;;;;2.91;43.83;99574.41;108175;1254;71476;-66
2023/11/30 05:40:30;;;;;;;41.50;17.60;;;;;;;2.85;44.07;99576.74;108051;1254;60752;-66
2023/11/30 05:42:58;;;;;;;44.40;18.90;;;;;;;2.97;43.98;99582.47;108151;1253;61148;-66
2023/11/30 05:45:27;;;;;;;41.00;17.70;;;;;;;2.94;43.86;99581.83;108105;1253;71881;-66
2023/11/30 05:47:54;;;;;;;39.90;16.40;;;;;;;2.92;44.11;99583.92;108077;1254;69227;-66
2023/11/30 05:50:22;;;;;;;38.10;17.50;;;;;;;2.78;44.24;99586.55;108121;1253;71892;-68
2023/11/30 05:52:50;;;;;;;43.10;17.80;;;;;;;2.90;44.09;99589.32;108048;1254;62177;-66
2023/11/30 05:55:17;;;;;;;47.40;19.20;;;;;;;2.98;44.08;99587.30;108008;1253;59654;-66
2023/11/30 05:57:44;;;;;;;43.50;18.70;;;;;;;3.08;43.82;99588.54;108084;1254;71893;-66
2023/11/30 06:00:12;;;;;;;42.30;18.50;;;;;;;2.98;43.98;99588.67;108105;1253;70912;-66
2023/11/30 06:02:40;;;;;;;47.20;18.40;;;;;;;3.06;43.95;99594.98;108034;1254;72513;-66
2023/11/30 06:05:08;;;;;;;38.20;16.80;;;;;;;2.96;43.86;99599.46;108038;1259;60357;-67
2023/11/30 06:07:35;;;;;;;44.30;18.50;;;;;;;3.10;43.84;99596.65;107902;1260;59610;-67
2023/11/30 06:10:04;;;;;;;42.10;16.10;;;;;;;3.11;43.95;99604.98;108163;1254;71791;-66
2023/11/30 06:12:32;;;;;;;43.00;18.00;;;;;;;3.17;43.78;99609.73;108055;1254;70049;-66
2023/11/30 06:15:00;;;;;;;40.90;17.50;;;;;;;3.31;43.67;99616.80;108098;1254;71468;-66
2023/11/30 06:17:27;;;;;;;42.10;16.80;;;;;;;3.27;43.56;99616.86;108065;1254;60495;-66
2023/11/30 06:19:55;;;;;;;42.70;17.30;;;;;;;3.37;43.52;99622.45;108124;1259;59106;-66
2023/11/30 06:22:22;;;;;;;42.70;17.80;;;;;;;3.32;43.68;99626.69;108095;1253;73089;-66
2023/11/30 06:24:50;;;;;;;43.60;16.50;;;;;;;3.35;43.56;99626.98;108087;1254;69194;-66
2023/11/30 06:27:17;;;;;;;43.60;17.70;;;;;;;3.24;43.84;99627.32;108096;1254;72723;-66
2023/11/30 06:29:45;;;;;;;41.70;17.90;;;;;;;2.86;44.44;99639.30;107938;1257;61666;-66
2023/11/30 06:32:12;;;;;;;43.00;17.30;;;;;;;2.81;44.59;99644.77;108178;1252;59590;-66
2023/11/30 06:34:40;;;;;;;43.30;17.60;;;;;;;3.11;44.27;99644.54;108097;1253;71854;-66
2023/11/30 06:37:08;;;;;;;45.30;19.00;;;;;;;3.05;44.11;99647.90;108089;1254;68702;-66
2023/11/30 06:39:35;;;;;;;43.60;18.30;;;;;;;3.16;44.14;99649.30;108040;1254;71699;-66
2023/11/30 06:42:03;;;;;;;48.90;17.90;;;;;;;3.37;43.88;99647.61;107998;1254;61645;-66
2023/11/30 06:44:31;;;;;;;45.20;19.00;;;;;;;3.06;44.05;99649.96;107983;1256;59648;-66
2023/11/30 06:46:58;;;;;;;45.10;19.00;;;;;;;3.15;44.12;99647.75;108083;1254;71945;-66
2023/11/30 06:49:26;;;;;;;43.10;17.00;;;;;;;3.44;43.44;99648.02;108081;1254;72230;-66
2023/11/30 06:51:53;;;;;;;48.30;20.30;;;;;;;3.61;43.39;99652.27;108030;1256;71662;-66
2023/11/30 06:54:21;;;;;;;47.50;20.20;;;;;;;3.70;43.28;99650.72;108043;1260;61839;-66
2023/11/30 06:56:49;;;;;;;41.90;17.80;;;;;;;3.77;43.15;99658.77;108086;1254;59497;-66
2023/11/30 06:59:16;;;;;;;47.10;16.90;;;;;;;3.86;42.96;99662.08;108075;1254;72487;-65
2023/11/30 07:01:44;;;;;;;42.30;17.20;;;;;;;3.66;43.19;99665.70;108040;1254;68711;-65
2023/11/30 07:04:12;;;;;;;37.80;17.30;;;;;;;4.22;42.48;99670.13;108059;1253;71250;-65
2023/11/30 07:06:40;;;;;;;47.20;18.70;;;;;;;5.01;41.92;99672.90;108172;1254;60372;-66
2023/11/30 07:09:12;;;;;;;36.90;16.30;;;;;;;5.62;39.89;99676.90;108057;1253;59561;-66
2023/11/30 07:11:39;;;;;;;43.90;18.80;;;;;;;6.41;38.79;99671.78;108101;1254;72172;-66
2023/11/30 07:14:07;;;;;;;37.70;17.20;;;;;;;7.05;37.53;99673.27;108041;1259;69979;-66
2023/11/30 07:16:35;;;;;;;38.90;16.80;;;;;;;7.60;36.64;99674.89;108031;1254;71425;-67
2023/11/30 07:19:02;;;;;;;39.00;18.10;;;;;;;8.31;36.27;99676.36;108047;1254;60537;-66
2023/11/30 07:21:30;;;;;;;36.50;17.30;;;;;;;9.08;34.46;99679.89;108022;1253;60302;-67
2023/11/30 07:23:59;;;;;;;41.50;18.20;;;;;;;9.60;33.23;99689.46;108054;1253;73822;-67
2023/11/30 07:26:27;;;;;;;36.80;17.50;;;;;;;9.93;32.98;99682.67;108058;1254;72772;-67
2023/11/30 07:28:54;;;;;;;33.90;16.60;;;;;;;10.09;32.01;99690.42;108048;1254;72102;-67
2023/11/30 07:31:22;;;;;;;38.80;17.40;;;;;;;10.33;32.21;99690.14;108076;1252;60432;-67
2023/11/30 07:33:49;;;;;;;37.30;17.90;;;;;;;10.61;31.29;99685.76;108110;1254;60315;-68
2023/11/30 07:36:17;;;;;;;33.30;16.60;;;;;;;10.92;30.93;99691.59;108092;1253;73884;-67
2023/11/30 07:38:44;;;;;;;35.80;16.90;;;;;;;11.31;31.20;99686.93;108126;1254;69299;-67
2023/11/30 07:41:14;;;;;;;35.10;16.40;;;;;;;11.73;29.86;99687.79;108040;1254;71380;-67
2023/11/30 07:43:41;;;;;;;36.30;16.90;;;;;;;12.04;29.70;99683.83;108015;1254;60447;-67
2023/11/30 07:46:09;;;;;;;33.10;15.50;;;;;;;12.32;29.76;99688.52;108050;1253;60396;-67
2023/11/30 07:48:36;;;;;;;32.20;16.60;;;;;;;12.76;28.77;99688.74;108020;1254;73931;-67
2023/11/30 07:51:04;;;;;;;36.40;17.50;;;;;;;13.19;28.58;99693.11;108042;1253;69625;-67
2023/11/30 07:53:32;;;;;;;29.60;14.60;;;;;;;13.26;27.86;99698.23;107916;1256;72658;-67
2023/11/30 07:56:00;;;;;;;32.20;15.80;;;;;;;13.11;27.25;99701.28;108067;1254;60443;-67
2023/11/30 07:58:28;;;;;;;33.60;16.10;;;;;;;12.96;28.26;99713.21;108046;1254;60412;-67
2023/11/30 08:00:56;;;;;;;30.80;15.70;;;;;;;13.14;27.47;99716.48;108021;1254;74381;-67
2023/11/30 08:03:24;;;;;;;34.20;16.50;;;;;;;13.15;27.71;99718.38;108033;1254;70189;-67
2023/11/30 08:05:52;;;;;;;30.50;17.20;;;;;;;13.35;27.53;99716.76;108010;1254;71590;-67
2023/11/30 08:08:19;;;;;;;30.90;14.80;;;;;;;13.25;27.21;99715.89;108007;1259;59517;-67
2023/11/30 08:10:47;;;;;;;27.30;15.50;;;;;;;13.53;27.36;99716.48;108023;1253;60918;-67
2023/11/30 08:13:15;;;;;;;29.70;15.70;;;;;;;13.72;26.80;99720.02;108074;1252;72550;-67
2023/11/30 08:15:42;;;;;;;33.00;17.00;;;;;;;14.05;26.75;99721.45;108069;1254;69940;-67
2023/11/30 08:18:10;;;;;;;33.00;17.90;;;;;;;14.29;27.29;99724.14;108015;1254;72981;-67
2023/11/30 08:20:37;;;;;;;29.40;15.70;;;;;;;14.52;26.33;99716.95;107998;1253;60322;-67
2023/11/30 08:23:05;;;;;;;31.10;16.40;;;;;;;14.69;26.71;99718.20;108064;1253;59630;-67
2023/11/30 08:25:32;;;;;;;32.00;16.70;;;;;;;15.11;25.94;99714.79;108022;1254;73771;-67
2023/11/30 08:28:00;;;;;;;30.50;16.30;;;;;;;15.47;25.28;99717.67;107971;1253;69570;-66
2023/11/30 08:30:27;;;;;;;32.00;17.10;;;;;;;15.40;25.37;99725.17;108051;1254;72304;-67
2023/11/30 08:32:55;;;;;;;28.10;15.30;;;;;;;15.44;24.97;99726.20;108120;1254;60421;-67
2023/11/30 08:35:23;;;;;;;30.20;16.00;;;;;;;15.41;25.09;99725.81;108025;1254;60153;-67
2023/11/30 08:37:50;;;;;;;29.10;15.90;;;;;;;15.67;25.34;99724.02;108044;1253;73746;-67
2023/11/30 08:40:17;;;;;;;28.30;15.60;;;;;;;15.80;24.70;99720.02;108020;1254;71797;-67
2023/11/30 08:42:45;;;;;;;31.10;16.00;;;;;;;15.82;24.66;99723.42;108075;1254;71466;-67
2023/11/30 08:45:13;;;;;;;26.80;14.60;;;;;;;15.51;24.31;99721.65;108171;1257;62338;-67
2023/11/30 08:47:42;;;;;;;27.20;14.60;;;;;;;15.14;24.53;99722.54;108101;1253;60360;-67
2023/11/30 08:50:09;;;;;;;31.50;14.80;;;;;;;14.44;25.46;99725.73;108011;1259;73891;-67
2023/11/30 08:52:37;;;;;;;27.80;14.10;;;;;;;13.54;25.78;99722.73;107999;1258;69856;-67
2023/11/30 08:55:04;;;;;;;33.10;15.50;;;;;;;12.93;26.89;99720.22;108006;1254;71529;-67
2023/11/30 08:57:32;;;;;;;28.40;15.00;;;;;;;12.54;27.58;99709.06;108000;1256;59337;-67
2023/11/30 08:59:59;;;;;;;25.50;14.00;;;;;;;12.50;27.77;99706.48;107863;1253;60437;-67
2023/11/30 09:02:27;;;;;;;26.30;13.70;;;;;;;12.51;28.13;99706.40;108088;1253;73974;-67
2023/11/30 09:04:54;;;;;;;24.10;13.40;;;;;;;12.07;27.75;99702.48;108036;1254;68851;-67
2023/11/30 09:07:22;;;;;;;29.60;15.20;;;;;;;11.85;28.44;99702.69;108027;1253;72481;-66
2023/11/30 09:09:50;;;;;;;27.00;13.80;;;;;;;11.83;28.45;99709.80;108059;1257;59314;-66
2023/11/30 09:12:18;;;;;;;29.70;15.00;;;;;;;11.29;28.70;99716.41;108050;1259;60338;-66
2023/11/30 09:14:46;;;;;;;32.10;14.20;;;;;;;11.13;29.34;99715.76;108047;1254;75842;-66
2023/11/30 09:17:13;;;;;;;28.50;12.90;;;;;;;11.08;29.61;99717.73;108054;1253;72405;-66
2023/11/30 09:19:41;;;;;;;35.70;16.50;;;;;;;11.06;29.54;99717.27;108072;1254;72843;-67
2023/11/30 09:22:09;;;;;;;30.10;13.70;;;;;;;10.97;30.00;99719.29;107920;1254;60534;-67
2023/11/30 09:24:36;;;;;;;27.50;14.30;;;;;;;11.06;29.67;99713.43;108083;1254;60284;-66
2023/11/30 09:27:04;;;;;;;32.00;15.80;;;;;;;11.35;29.72;99711.41;108116;1253;72783;-66
2023/11/30 09:29:36;;;;;;;33.40;15.30;;;;;;;11.39;29.60;99713.09;108063;1252;68227;-66
2023/11/30 09:32:04;;;;;;;33.70;15.70;;;;;;;11.16;29.31;99718.05;107909;1254;71470;-66
2023/11/30 09:34:31;;;;;;;31.60;14.20;;;;;;;10.76;29.85;99713.36;108071;1254;60322;-66
2023/11/30 09:36:59;;;;;;;31.50;14.60;;;;;;;10.74;29.94;99707.84;108026;1253;60281;-66
2023/11/30 09:39:27;;;;;;;31.60;14.50;;;;;;;11.19;29.95;99708.43;108059;1254;73842;-66
2023/11/30 09:41:59;;;;;;;28.00;13.80;;;;;;;11.66;29.41;99712.37;108089;1257;68733;-67
2023/11/30 09:44:27;;;;;;;31.40;14.60;;;;;;;11.74;28.44;99703.55;108078;1256;73076;-67
2023/11/30 09:46:54;;;;;;;34.70;12.80;;;;;;;11.98;28.41;99702.59;108048;1252;59194;-67
2023/11/30 09:49:22;;;;;;;27.80;12.60;;;;;;;12.07;28.56;99699.48;107841;1253;62589;-67
2023/11/30 09:51:51;;;;;;;32.10;13.10;;;;;;;12.17;28.17;99702.54;107878;1253;76090;-66
2023/11/30 09:54:19;;;;;;;28.70;12.70;;;;;;;11.80;28.06;99709.09;108059;1254;68497;-66
2023/11/30 09:56:47;;;;;;;31.20;13.50;;;;;;;11.69;28.35;99705.89;108032;1253;75174;-66
2023/11/30 09:59:14;;;;;;;33.30;13.50;;;;;;;11.89;28.28;99706.17;107943;1253;60460;-67
2023/11/30 10:01:42;;;;;;;28.40;12.90;;;;;;;11.87;28.08;99710.67;108064;1252;60619;-66
2023/11/30 10:04:17;;;;;;;26.10;11.80;;;;;;;11.85;28.12;99709.20;108044;1254;73816;-66
2023/11/30 10:06:46;;;;;;;26.10;12.40;;;;;;;11.90;28.39;99710.89;108212;1254;72783;-67
2023/11/30 10:09:15;;;;;;;27.20;11.80;;;;;;;12.23;27.75;99716.81;107934;1255;71655;-66
2023/11/30 10:11:43;;;;;;;26.70;12.70;;;;;;;12.79;27.15;99714.48;108114;1254;60232;-67
2023/11/30 10:14:10;;;;;;;24.90;12.10;;;;;;;13.00;26.90;99713.86;108088;1254;60721;-67
2023/11/30 10:16:39;;;;;;;26.30;12.10;;;;;;;12.83;26.52;99712.81;108018;1254;72125;-67
2023/11/30 10:19:07;;;;;;;23.80;11.20;;;;;;;12.69;27.10;99706.16;108132;1254;68962;-67
2023/11/30 10:21:37;;;;;;;20.70;10.30;;;;;;;12.48;26.93;99709.19;108136;1254;71919;-67
2023/11/30 10:24:05;;;;;;;17.60;9.60;;;;;;;12.27;27.05;99710.95;108086;1256;61162;-66
2023/11/30 10:26:34;;;;;;;25.60;10.80;;;;;;;11.88;27.26;99716.42;107868;1254;60329;-67
2023/11/30 10:29:03;;;;;;;17.00;9.40;;;;;;;11.76;27.59;99720.01;108118;1254;72481;-67
2023/11/30 10:31:33;;;;;;;20.90;10.20;;;;;;;12.20;27.24;99715.02;108031;1255;70792;-67
2023/11/30 10:34:07;;;;;;;19.80;9.00;;;;;;;12.87;26.96;99707.33;108083;1254;73788;-67
2023/11/30 10:36:35;;;;;;;16.90;8.70;;;;;;;13.39;25.72;99712.33;108167;1254;60362;-67
2023/11/30 10:39:12;;;;;;;18.50;9.10;;;;;;;13.55;25.13;99708.61;107957;1253;60319;-67
2023/11/30 10:41:50;;;;;;;16.90;9.20;;;;;;;14.01;25.32;99707.44;107973;1252;73831;-67
2023/11/30 10:44:29;;;;;;;17.90;9.30;;;;;;;14.16;24.40;99707.05;108131;1254;70457;-67
2023/11/30 10:47:00;;;;;;;20.40;10.00;;;;;;;14.57;24.75;99706.27;108112;1254;73144;-67
2023/11/30 10:49:28;;;;;;;;;;;;;;;14.88;24.17;99707.02;108121;1259;60365;-67
2023/11/30 10:51:57;;;;;;;21.00;11.40;;;;;;;15.04;24.33;99701.99;108075;1254;60947;-66
2023/11/30 10:55:01;;;;;;;27.80;12.60;;;;;;;15.55;24.02;99703.52;108141;1253;74281;-67
2023/11/30 10:57:28;;;;;;;22.30;10.80;;;;;;;16.04;23.64;99703.16;107867;1252;70391;-67
2023/11/30 10:59:58;;;;;;;21.50;11.20;;;;;;;16.58;23.01;99700.08;108089;1254;71432;-67
2023/11/30 11:02:39;;;;;;;20.00;10.80;;;;;;;16.74;22.56;99698.47;108015;1254;62248;-67
2023/11/30 11:05:12;;;;;;;20.90;10.30;;;;;;;17.04;22.30;99701.02;108097;1253;60191;-67
2023/11/30 11:07:44;;;;;;;20.20;9.80;;;;;;;16.96;21.95;99703.48;108141;1252;76409;-67
2023/11/30 11:10:35;;;;;;;22.90;9.50;;;;;;;16.83;22.24;99700.16;108127;1257;71185;-67
2023/11/30 11:13:02;;;;;;;19.80;9.20;;;;;;;16.49;22.03;99705.12;108079;1254;70607;-67
2023/11/30 11:15:31;;;;;;;21.40;9.40;;;;;;;16.38;22.12;99696.83;108117;1253;62530;-68
2023/11/30 11:18:07;;;;;;;17.90;9.10;;;;;;;16.15;22.05;99696.96;108096;1254;60293;-67
2023/11/30 11:20:36;;;;;;;15.60;8.40;;;;;;;15.54;22.33;99701.27;107910;1254;76009;-67